sensor_id;sensor_type;location;lat;lon;timestamp;temperature;humidity
65072;DHT22;51663;52.310;17.016;2023-01-10T00:01:06;29.50;26.40
65072;DHT22;51663;52.310;17.016;2023-01-10T00:04:08;29.50;26.40
65072;DHT22;51663;52.310;17.016;2023-01-10T00:07:10;29.60;26.40
65072;DHT22;51663;52.310;17.016;2023-01-10T00:10:13;29.50;26.50
65072;DHT22;51663;52.310;17.016;2023-01-10T00:13:16;29.60;26.40
65072;DHT22;51663;52.310;17.016;2023-01-10T00:16:25;29.70;26.30
65072;DHT22;51663;52.310;17.016;2023-01-10T00:19:27;29.80;26.20
65072;DHT22;51663;52.310;17.016;2023-01-10T00:22:29;29.90;26.20
65072;DHT22;51663;52.310;17.016;2023-01-10T00:25:31;29.90;26.10
65072;DHT22;51663;52.310;17.016;2023-01-10T00:28:37;30.00;26.00
65072;DHT22;51663;52.310;17.016;2023-01-10T00:31:40;30.10;25.90
65072;DHT22;51663;52.310;17.016;2023-01-10T00:34:42;30.10;25.90
65072;DHT22;51663;52.310;17.016;2023-01-10T00:37:44;30.10;25.90
65072;DHT22;51663;52.310;17.016;2023-01-10T00:40:46;30.10;25.80
65072;DHT22;51663;52.310;17.016;2023-01-10T00:43:48;30.00;25.90
65072;DHT22;51663;52.310;17.016;2023-01-10T00:47:00;30.00;25.90
65072;DHT22;51663;52.310;17.016;2023-01-10T00:50:03;30.00;25.90
65072;DHT22;51663;52.310;17.016;2023-01-10T00:53:07;30.00;25.90
65072;DHT22;51663;52.310;17.016;2023-01-10T00:56:09;30.00;25.90
65072;DHT22;51663;52.310;17.016;2023-01-10T00:59:12;30.00;25.90
65072;DHT22;51663;52.310;17.016;2023-01-10T01:02:14;30.00;25.90
65072;DHT22;51663;52.310;17.016;2023-01-10T01:05:17;30.00;25.80
65072;DHT22;51663;52.310;17.016;2023-01-10T01:08:19;30.00;25.90
65072;DHT22;51663;52.310;17.016;2023-01-10T01:11:22;30.00;25.90
65072;DHT22;51663;52.310;17.016;2023-01-10T01:14:24;30.00;25.80
65072;DHT22;51663;52.310;17.016;2023-01-10T01:17:26;30.00;25.80
65072;DHT22;51663;52.310;17.016;2023-01-10T01:20:29;30.00;25.90
65072;DHT22;51663;52.310;17.016;2023-01-10T01:23:32;29.90;25.90
65072;DHT22;51663;52.310;17.016;2023-01-10T01:26:35;30.00;25.80
65072;DHT22;51663;52.310;17.016;2023-01-10T01:29:37;30.00;25.80
65072;DHT22;51663;52.310;17.016;2023-01-10T01:32:44;30.00;25.80
65072;DHT22;51663;52.310;17.016;2023-01-10T01:35:47;30.00;25.80
65072;DHT22;51663;52.310;17.016;2023-01-10T01:38:51;29.90;25.70
65072;DHT22;51663;52.310;17.016;2023-01-10T01:41:53;29.80;25.80
65072;DHT22;51663;52.310;17.016;2023-01-10T01:48:30;29.80;25.80
65072;DHT22;51663;52.310;17.016;2023-01-10T01:51:35;29.80;25.90
65072;DHT22;51663;52.310;17.016;2023-01-10T01:54:37;29.70;26.00
65072;DHT22;51663;52.310;17.016;2023-01-10T01:57:39;29.80;26.10
65072;DHT22;51663;52.310;17.016;2023-01-10T02:00:41;29.80;26.10
65072;DHT22;51663;52.310;17.016;2023-01-10T02:03:49;29.70;26.10
65072;DHT22;51663;52.310;17.016;2023-01-10T02:06:53;29.60;26.60
65072;DHT22;51663;52.310;17.016;2023-01-10T02:10:10;29.70;26.10
65072;DHT22;51663;52.310;17.016;2023-01-10T02:13:15;29.80;26.10
65072;DHT22;51663;52.310;17.016;2023-01-10T02:16:18;29.80;25.90
65072;DHT22;51663;52.310;17.016;2023-01-10T02:19:41;29.90;25.90
65072;DHT22;51663;52.310;17.016;2023-01-10T02:32:49;30.00;25.80
65072;DHT22;51663;52.310;17.016;2023-01-10T02:45:34;29.90;25.90
65072;DHT22;51663;52.310;17.016;2023-01-10T02:48:37;29.80;25.80
65072;DHT22;51663;52.310;17.016;2023-01-10T02:51:40;29.90;25.70
65072;DHT22;51663;52.310;17.016;2023-01-10T02:54:42;29.80;25.80
65072;DHT22;51663;52.310;17.016;2023-01-10T02:57:55;29.80;25.80
65072;DHT22;51663;52.310;17.016;2023-01-10T03:04:45;29.80;25.80
65072;DHT22;51663;52.310;17.016;2023-01-10T03:11:16;29.70;25.80
65072;DHT22;51663;52.310;17.016;2023-01-10T03:14:38;29.80;25.80
65072;DHT22;51663;52.310;17.016;2023-01-10T03:17:42;29.80;25.80
65072;DHT22;51663;52.310;17.016;2023-01-10T03:20:47;29.80;25.70
65072;DHT22;51663;52.310;17.016;2023-01-10T03:23:57;29.80;25.70
65072;DHT22;51663;52.310;17.016;2023-01-10T03:30:29;29.70;25.60
65072;DHT22;51663;52.310;17.016;2023-01-10T03:33:33;29.60;25.50
65072;DHT22;51663;52.310;17.016;2023-01-10T03:43:20;29.60;25.40
65072;DHT22;51663;52.310;17.016;2023-01-10T03:46:58;29.60;25.30
65072;DHT22;51663;52.310;17.016;2023-01-10T03:50:09;29.50;25.20
65072;DHT22;51663;52.310;17.016;2023-01-10T03:53:13;29.40;25.30
65072;DHT22;51663;52.310;17.016;2023-01-10T03:56:15;29.50;25.30
65072;DHT22;51663;52.310;17.016;2023-01-10T03:59:24;29.40;25.30
65072;DHT22;51663;52.310;17.016;2023-01-10T04:02:29;29.30;25.40
65072;DHT22;51663;52.310;17.016;2023-01-10T04:05:31;29.40;25.40
65072;DHT22;51663;52.310;17.016;2023-01-10T04:08:34;29.40;25.40
65072;DHT22;51663;52.310;17.016;2023-01-10T04:11:36;29.40;25.40
65072;DHT22;51663;52.310;17.016;2023-01-10T04:14:39;29.20;25.30
65072;DHT22;51663;52.310;17.016;2023-01-10T04:17:41;29.20;25.50
65072;DHT22;51663;52.310;17.016;2023-01-10T04:20:44;29.30;25.50
65072;DHT22;51663;52.310;17.016;2023-01-10T04:23:46;29.30;25.50
65072;DHT22;51663;52.310;17.016;2023-01-10T04:26:49;29.40;25.30
65072;DHT22;51663;52.310;17.016;2023-01-10T04:29:51;29.50;25.40
65072;DHT22;51663;52.310;17.016;2023-01-10T04:32:54;29.50;25.30
65072;DHT22;51663;52.310;17.016;2023-01-10T04:35:56;29.60;25.30
65072;DHT22;51663;52.310;17.016;2023-01-10T04:38:58;29.50;25.20
65072;DHT22;51663;52.310;17.016;2023-01-10T04:42:01;29.50;25.30
65072;DHT22;51663;52.310;17.016;2023-01-10T04:45:03;29.60;25.30
65072;DHT22;51663;52.310;17.016;2023-01-10T04:48:05;29.60;25.30
65072;DHT22;51663;52.310;17.016;2023-01-10T04:51:08;29.70;25.30
65072;DHT22;51663;52.310;17.016;2023-01-10T04:54:10;29.70;25.30
65072;DHT22;51663;52.310;17.016;2023-01-10T04:57:12;29.80;25.30
65072;DHT22;51663;52.310;17.016;2023-01-10T05:00:14;29.70;25.30
65072;DHT22;51663;52.310;17.016;2023-01-10T05:03:16;29.80;25.40
65072;DHT22;51663;52.310;17.016;2023-01-10T05:06:22;29.80;25.40
65072;DHT22;51663;52.310;17.016;2023-01-10T05:09:25;29.80;25.40
65072;DHT22;51663;52.310;17.016;2023-01-10T05:12:27;29.80;25.40
65072;DHT22;51663;52.310;17.016;2023-01-10T05:15:29;29.80;25.40
65072;DHT22;51663;52.310;17.016;2023-01-10T05:18:32;29.90;25.40
65072;DHT22;51663;52.310;17.016;2023-01-10T05:21:35;29.80;25.30
65072;DHT22;51663;52.310;17.016;2023-01-10T05:24:37;29.80;25.40
65072;DHT22;51663;52.310;17.016;2023-01-10T05:27:40;29.80;25.30
65072;DHT22;51663;52.310;17.016;2023-01-10T05:30:43;29.80;25.30
65072;DHT22;51663;52.310;17.016;2023-01-10T05:33:47;29.80;25.30
65072;DHT22;51663;52.310;17.016;2023-01-10T05:36:50;29.80;25.40
65072;DHT22;51663;52.310;17.016;2023-01-10T05:39:52;29.90;25.30
65072;DHT22;51663;52.310;17.016;2023-01-10T05:42:54;29.90;25.30
65072;DHT22;51663;52.310;17.016;2023-01-10T05:45:56;29.90;25.40
65072;DHT22;51663;52.310;17.016;2023-01-10T05:48:58;29.90;25.40
65072;DHT22;51663;52.310;17.016;2023-01-10T05:52:01;29.90;25.40
65072;DHT22;51663;52.310;17.016;2023-01-10T05:55:04;29.90;25.40
65072;DHT22;51663;52.310;17.016;2023-01-10T05:58:06;29.90;25.40
65072;DHT22;51663;52.310;17.016;2023-01-10T06:01:09;29.90;25.30
65072;DHT22;51663;52.310;17.016;2023-01-10T06:04:11;30.00;25.40
65072;DHT22;51663;52.310;17.016;2023-01-10T06:07:13;29.90;25.30
65072;DHT22;51663;52.310;17.016;2023-01-10T06:10:16;29.90;25.40
65072;DHT22;51663;52.310;17.016;2023-01-10T06:13:18;29.90;25.40
65072;DHT22;51663;52.310;17.016;2023-01-10T06:16:23;29.90;25.50
65072;DHT22;51663;52.310;17.016;2023-01-10T06:19:29;29.90;25.50
65072;DHT22;51663;52.310;17.016;2023-01-10T06:22:31;29.90;25.60
65072;DHT22;51663;52.310;17.016;2023-01-10T06:25:35;29.90;25.60
65072;DHT22;51663;52.310;17.016;2023-01-10T06:28:38;29.80;25.50
65072;DHT22;51663;52.310;17.016;2023-01-10T06:31:42;29.80;25.70
65072;DHT22;51663;52.310;17.016;2023-01-10T06:34:44;29.80;25.70
65072;DHT22;51663;52.310;17.016;2023-01-10T06:37:47;29.80;25.60
65072;DHT22;51663;52.310;17.016;2023-01-10T06:40:49;29.90;25.70
65072;DHT22;51663;52.310;17.016;2023-01-10T06:43:53;29.90;25.60
65072;DHT22;51663;52.310;17.016;2023-01-10T06:46:55;29.80;25.50
65072;DHT22;51663;52.310;17.016;2023-01-10T06:49:57;29.90;25.60
65072;DHT22;51663;52.310;17.016;2023-01-10T06:53:03;30.00;25.50
65072;DHT22;51663;52.310;17.016;2023-01-10T06:56:06;30.00;25.50
65072;DHT22;51663;52.310;17.016;2023-01-10T06:59:10;30.00;25.40
65072;DHT22;51663;52.310;17.016;2023-01-10T07:02:12;30.00;25.50
65072;DHT22;51663;52.310;17.016;2023-01-10T07:05:15;30.00;25.50
65072;DHT22;51663;52.310;17.016;2023-01-10T07:08:17;30.00;25.40
65072;DHT22;51663;52.310;17.016;2023-01-10T07:11:19;30.00;25.40
65072;DHT22;51663;52.310;17.016;2023-01-10T07:14:21;29.90;25.30
65072;DHT22;51663;52.310;17.016;2023-01-10T07:17:24;29.90;25.40
65072;DHT22;51663;52.310;17.016;2023-01-10T07:20:26;29.80;25.40
65072;DHT22;51663;52.310;17.016;2023-01-10T07:23:29;29.80;25.50
65072;DHT22;51663;52.310;17.016;2023-01-10T07:26:34;29.80;25.50
65072;DHT22;51663;52.310;17.016;2023-01-10T07:29:37;29.80;25.70
65072;DHT22;51663;52.310;17.016;2023-01-10T07:32:38;29.80;25.60
65072;DHT22;51663;52.310;17.016;2023-01-10T07:35:41;29.90;25.60
65072;DHT22;51663;52.310;17.016;2023-01-10T07:38:43;30.00;25.60
65072;DHT22;51663;52.310;17.016;2023-01-10T07:41:49;30.10;25.60
65072;DHT22;51663;52.310;17.016;2023-01-10T07:44:51;30.10;25.60
65072;DHT22;51663;52.310;17.016;2023-01-10T07:47:57;30.10;25.60
65072;DHT22;51663;52.310;17.016;2023-01-10T07:51:00;30.00;25.70
65072;DHT22;51663;52.310;17.016;2023-01-10T07:54:02;30.00;25.80
65072;DHT22;51663;52.310;17.016;2023-01-10T07:57:04;30.00;25.90
65072;DHT22;51663;52.310;17.016;2023-01-10T08:00:07;30.00;25.80
65072;DHT22;51663;52.310;17.016;2023-01-10T08:03:10;30.00;25.80
65072;DHT22;51663;52.310;17.016;2023-01-10T08:06:13;30.00;25.90
65072;DHT22;51663;52.310;17.016;2023-01-10T08:09:17;30.00;25.90
65072;DHT22;51663;52.310;17.016;2023-01-10T08:12:20;30.10;25.90
65072;DHT22;51663;52.310;17.016;2023-01-10T08:15:22;30.20;25.80
65072;DHT22;51663;52.310;17.016;2023-01-10T08:18:25;30.30;25.90
65072;DHT22;51663;52.310;17.016;2023-01-10T08:21:27;30.30;25.90
65072;DHT22;51663;52.310;17.016;2023-01-10T08:24:29;30.40;25.90
65072;DHT22;51663;52.310;17.016;2023-01-10T08:27:31;30.50;25.90
65072;DHT22;51663;52.310;17.016;2023-01-10T08:30:34;30.40;25.70
65072;DHT22;51663;52.310;17.016;2023-01-10T08:33:40;30.50;25.70
65072;DHT22;51663;52.310;17.016;2023-01-10T08:36:42;30.60;25.80
65072;DHT22;51663;52.310;17.016;2023-01-10T08:39:44;30.60;25.80
65072;DHT22;51663;52.310;17.016;2023-01-10T08:42:46;30.60;25.80
65072;DHT22;51663;52.310;17.016;2023-01-10T08:45:51;30.50;25.90
65072;DHT22;51663;52.310;17.016;2023-01-10T08:48:54;30.50;25.90
65072;DHT22;51663;52.310;17.016;2023-01-10T08:51:56;30.60;26.10
65072;DHT22;51663;52.310;17.016;2023-01-10T08:54:59;30.50;26.00
65072;DHT22;51663;52.310;17.016;2023-01-10T08:58:01;30.60;26.10
65072;DHT22;51663;52.310;17.016;2023-01-10T09:01:05;30.50;26.20
65072;DHT22;51663;52.310;17.016;2023-01-10T09:04:07;30.40;26.30
65072;DHT22;51663;52.310;17.016;2023-01-10T09:07:10;30.40;26.30
65072;DHT22;51663;52.310;17.016;2023-01-10T09:10:12;30.60;26.30
65072;DHT22;51663;52.310;17.016;2023-01-10T09:13:14;30.50;26.30
65072;DHT22;51663;52.310;17.016;2023-01-10T09:16:17;30.60;26.50
65072;DHT22;51663;52.310;17.016;2023-01-10T09:19:19;30.50;26.30
65072;DHT22;51663;52.310;17.016;2023-01-10T09:22:21;30.60;26.40
65072;DHT22;51663;52.310;17.016;2023-01-10T09:25:24;30.60;26.20
65072;DHT22;51663;52.310;17.016;2023-01-10T09:28:26;30.60;26.20
65072;DHT22;51663;52.310;17.016;2023-01-10T09:31:29;30.60;26.10
65072;DHT22;51663;52.310;17.016;2023-01-10T09:34:31;30.70;26.20
65072;DHT22;51663;52.310;17.016;2023-01-10T09:37:33;30.70;26.30
65072;DHT22;51663;52.310;17.016;2023-01-10T09:40:42;30.60;26.10
65072;DHT22;51663;52.310;17.016;2023-01-10T09:44:21;30.60;26.30
65072;DHT22;51663;52.310;17.016;2023-01-10T09:47:23;30.60;26.40
65072;DHT22;51663;52.310;17.016;2023-01-10T09:53:32;30.60;26.40
65072;DHT22;51663;52.310;17.016;2023-01-10T09:56:36;30.70;26.40
65072;DHT22;51663;52.310;17.016;2023-01-10T09:59:40;30.50;26.40
65072;DHT22;51663;52.310;17.016;2023-01-10T10:02:47;30.40;26.60
65072;DHT22;51663;52.310;17.016;2023-01-10T10:05:51;30.10;26.90
65072;DHT22;51663;52.310;17.016;2023-01-10T10:09:12;30.30;26.80
65072;DHT22;51663;52.310;17.016;2023-01-10T10:15:57;30.50;26.70
65072;DHT22;51663;52.310;17.016;2023-01-10T10:39:52;30.70;26.70
65072;DHT22;51663;52.310;17.016;2023-01-10T10:42:58;30.50;26.80
65072;DHT22;51663;52.310;17.016;2023-01-10T10:46:12;30.60;26.80
65072;DHT22;51663;52.310;17.016;2023-01-10T10:49:34;30.50;26.90
65072;DHT22;51663;52.310;17.016;2023-01-10T10:52:37;30.70;26.80
65072;DHT22;51663;52.310;17.016;2023-01-10T10:55:39;30.80;26.60
65072;DHT22;51663;52.310;17.016;2023-01-10T10:58:43;30.80;26.50
65072;DHT22;51663;52.310;17.016;2023-01-10T11:01:48;30.90;26.60
65072;DHT22;51663;52.310;17.016;2023-01-10T11:04:56;30.70;26.70
65072;DHT22;51663;52.310;17.016;2023-01-10T11:08:02;30.80;26.70
65072;DHT22;51663;52.310;17.016;2023-01-10T11:11:39;30.70;26.50
65072;DHT22;51663;52.310;17.016;2023-01-10T11:14:50;30.80;26.70
65072;DHT22;51663;52.310;17.016;2023-01-10T11:18:09;31.00;26.60
65072;DHT22;51663;52.310;17.016;2023-01-10T11:21:13;31.10;26.50
65072;DHT22;51663;52.310;17.016;2023-01-10T11:27:32;31.20;26.40
65072;DHT22;51663;52.310;17.016;2023-01-10T11:30:37;31.30;26.40
65072;DHT22;51663;52.310;17.016;2023-01-10T11:33:41;31.50;26.40
65072;DHT22;51663;52.310;17.016;2023-01-10T11:37:04;31.50;26.30
65072;DHT22;51663;52.310;17.016;2023-01-10T11:40:20;31.60;26.30
65072;DHT22;51663;52.310;17.016;2023-01-10T11:43:33;31.60;26.00
65072;DHT22;51663;52.310;17.016;2023-01-10T11:46:36;31.70;26.10
65072;DHT22;51663;52.310;17.016;2023-01-10T11:49:40;31.60;26.10
65072;DHT22;51663;52.310;17.016;2023-01-10T11:52:47;31.60;26.20
65072;DHT22;51663;52.310;17.016;2023-01-10T11:56:01;31.60;26.10
65072;DHT22;51663;52.310;17.016;2023-01-10T11:59:16;31.50;26.00
65072;DHT22;51663;52.310;17.016;2023-01-10T12:02:22;31.10;26.40
65072;DHT22;51663;52.310;17.016;2023-01-10T12:05:26;31.20;26.40
65072;DHT22;51663;52.310;17.016;2023-01-10T12:08:30;31.10;26.30
65072;DHT22;51663;52.310;17.016;2023-01-10T12:11:33;31.10;26.50
65072;DHT22;51663;52.310;17.016;2023-01-10T12:14:36;31.30;26.30
65072;DHT22;51663;52.310;17.016;2023-01-10T12:17:38;31.20;26.20
65072;DHT22;51663;52.310;17.016;2023-01-10T12:20:47;31.10;26.30
65072;DHT22;51663;52.310;17.016;2023-01-10T12:24:21;30.70;26.70
65072;DHT22;51663;52.310;17.016;2023-01-10T12:27:25;30.60;26.80
65072;DHT22;51663;52.310;17.016;2023-01-10T12:30:38;30.80;26.60
65072;DHT22;51663;52.310;17.016;2023-01-10T12:33:50;30.50;26.70
65072;DHT22;51663;52.310;17.016;2023-01-10T12:37:21;30.60;26.70
65072;DHT22;51663;52.310;17.016;2023-01-10T12:40:38;30.30;26.50
65072;DHT22;51663;52.310;17.016;2023-01-10T12:43:44;30.20;26.70
65072;DHT22;51663;52.310;17.016;2023-01-10T12:50:30;29.50;27.40
65072;DHT22;51663;52.310;17.016;2023-01-10T12:53:38;29.70;27.40
65072;DHT22;51663;52.310;17.016;2023-01-10T12:56:42;30.00;27.10
65072;DHT22;51663;52.310;17.016;2023-01-10T12:59:44;29.90;26.90
65072;DHT22;51663;52.310;17.016;2023-01-10T13:02:50;30.20;26.80
65072;DHT22;51663;52.310;17.016;2023-01-10T13:05:53;30.50;26.40
65072;DHT22;51663;52.310;17.016;2023-01-10T13:09:04;30.30;26.70
65072;DHT22;51663;52.310;17.016;2023-01-10T13:15:27;30.30;26.20
65072;DHT22;51663;52.310;17.016;2023-01-10T13:18:31;30.50;26.10
65072;DHT22;51663;52.310;17.016;2023-01-10T13:21:34;30.50;26.10
65072;DHT22;51663;52.310;17.016;2023-01-10T13:24:37;30.60;25.90
65072;DHT22;51663;52.310;17.016;2023-01-10T13:27:39;30.60;25.90
65072;DHT22;51663;52.310;17.016;2023-01-10T13:30:41;30.70;26.00
65072;DHT22;51663;52.310;17.016;2023-01-10T13:36:55;30.50;25.90
65072;DHT22;51663;52.310;17.016;2023-01-10T13:39:59;30.40;26.00
65072;DHT22;51663;52.310;17.016;2023-01-10T13:46:45;30.20;26.10
65072;DHT22;51663;52.310;17.016;2023-01-10T13:49:47;30.40;25.90
65072;DHT22;51663;52.310;17.016;2023-01-10T13:56:39;30.80;25.90
65072;DHT22;51663;52.310;17.016;2023-01-10T14:00:24;30.90;25.90
65072;DHT22;51663;52.310;17.016;2023-01-10T14:04:36;30.90;25.80
65072;DHT22;51663;52.310;17.016;2023-01-10T14:07:47;30.90;25.60
65072;DHT22;51663;52.310;17.016;2023-01-10T14:11:09;30.90;25.70
65072;DHT22;51663;52.310;17.016;2023-01-10T14:14:34;30.90;25.80
65072;DHT22;51663;52.310;17.016;2023-01-10T14:17:39;30.80;25.60
65072;DHT22;51663;52.310;17.016;2023-01-10T14:20:42;30.80;25.80
65072;DHT22;51663;52.310;17.016;2023-01-10T14:23:49;30.80;25.80
65072;DHT22;51663;52.310;17.016;2023-01-10T14:26:54;30.80;25.70
65072;DHT22;51663;52.310;17.016;2023-01-10T14:29:59;30.80;25.70
65072;DHT22;51663;52.310;17.016;2023-01-10T14:33:18;30.80;25.70
65072;DHT22;51663;52.310;17.016;2023-01-10T14:36:33;30.80;25.70
65072;DHT22;51663;52.310;17.016;2023-01-10T14:39:41;30.90;25.80
65072;DHT22;51663;52.310;17.016;2023-01-10T14:42:47;30.90;25.80
65072;DHT22;51663;52.310;17.016;2023-01-10T14:46:13;30.90;25.80
65072;DHT22;51663;52.310;17.016;2023-01-10T14:49:48;30.90;25.80
65072;DHT22;51663;52.310;17.016;2023-01-10T14:52:52;30.80;25.90
65072;DHT22;51663;52.310;17.016;2023-01-10T14:55:54;30.90;25.90
65072;DHT22;51663;52.310;17.016;2023-01-10T14:58:57;30.80;25.90
65072;DHT22;51663;52.310;17.016;2023-01-10T15:05:38;30.80;25.80
65072;DHT22;51663;52.310;17.016;2023-01-10T15:08:55;30.60;25.90
65072;DHT22;51663;52.310;17.016;2023-01-10T15:12:00;30.70;26.00
65072;DHT22;51663;52.310;17.016;2023-01-10T15:15:15;30.60;26.00
65072;DHT22;51663;52.310;17.016;2023-01-10T15:18:37;30.70;26.10
65072;DHT22;51663;52.310;17.016;2023-01-10T15:21:42;30.70;26.00
65072;DHT22;51663;52.310;17.016;2023-01-10T15:24:56;30.70;26.00
65072;DHT22;51663;52.310;17.016;2023-01-10T15:27:59;30.80;26.00
65072;DHT22;51663;52.310;17.016;2023-01-10T15:31:04;30.80;25.90
65072;DHT22;51663;52.310;17.016;2023-01-10T15:34:13;30.80;26.00
65072;DHT22;51663;52.310;17.016;2023-01-10T15:37:23;30.90;26.10
65072;DHT22;51663;52.310;17.016;2023-01-10T15:40:33;30.90;26.20
65072;DHT22;51663;52.310;17.016;2023-01-10T15:43:35;30.90;26.30
65072;DHT22;51663;52.310;17.016;2023-01-10T15:46:55;30.80;26.40
65072;DHT22;51663;52.310;17.016;2023-01-10T15:49:58;30.60;26.60
65072;DHT22;51663;52.310;17.016;2023-01-10T15:53:09;30.60;26.60
65072;DHT22;51663;52.310;17.016;2023-01-10T15:56:16;30.60;26.70
65072;DHT22;51663;52.310;17.016;2023-01-10T15:59:25;30.60;26.60
65072;DHT22;51663;52.310;17.016;2023-01-10T16:02:31;30.60;26.70
65072;DHT22;51663;52.310;17.016;2023-01-10T16:05:35;30.50;26.70
65072;DHT22;51663;52.310;17.016;2023-01-10T16:08:37;30.40;26.80
65072;DHT22;51663;52.310;17.016;2023-01-10T16:11:51;30.40;26.70
65072;DHT22;51663;52.310;17.016;2023-01-10T16:15:21;30.50;26.80
65072;DHT22;51663;52.310;17.016;2023-01-10T16:18:24;30.60;26.70
65072;DHT22;51663;52.310;17.016;2023-01-10T16:21:31;30.60;26.60
65072;DHT22;51663;52.310;17.016;2023-01-10T16:24:37;30.60;26.40
65072;DHT22;51663;52.310;17.016;2023-01-10T16:27:42;30.60;26.30
65072;DHT22;51663;52.310;17.016;2023-01-10T16:30:46;30.50;26.20
65072;DHT22;51663;52.310;17.016;2023-01-10T16:33:50;30.40;26.10
65072;DHT22;51663;52.310;17.016;2023-01-10T16:36:52;30.40;26.00
65072;DHT22;51663;52.310;17.016;2023-01-10T16:39:55;30.40;25.90
65072;DHT22;51663;52.310;17.016;2023-01-10T16:42:57;30.40;25.80
65072;DHT22;51663;52.310;17.016;2023-01-10T16:46:18;30.30;25.90
65072;DHT22;51663;52.310;17.016;2023-01-10T16:49:21;30.20;25.90
65072;DHT22;51663;52.310;17.016;2023-01-10T16:52:23;30.20;25.80
65072;DHT22;51663;52.310;17.016;2023-01-10T16:55:43;30.20;25.70
65072;DHT22;51663;52.310;17.016;2023-01-10T16:58:47;30.10;25.80
65072;DHT22;51663;52.310;17.016;2023-01-10T17:01:52;30.10;25.80
65072;DHT22;51663;52.310;17.016;2023-01-10T17:04:56;30.10;25.80
65072;DHT22;51663;52.310;17.016;2023-01-10T17:07:58;30.10;25.80
65072;DHT22;51663;52.310;17.016;2023-01-10T17:11:03;30.10;25.90
65072;DHT22;51663;52.310;17.016;2023-01-10T17:14:11;30.10;26.00
65072;DHT22;51663;52.310;17.016;2023-01-10T17:17:14;30.10;26.00
65072;DHT22;51663;52.310;17.016;2023-01-10T17:20:17;30.10;26.00
65072;DHT22;51663;52.310;17.016;2023-01-10T17:23:19;30.10;26.10
65072;DHT22;51663;52.310;17.016;2023-01-10T17:26:21;30.20;26.10
65072;DHT22;51663;52.310;17.016;2023-01-10T17:29:23;30.10;26.10
65072;DHT22;51663;52.310;17.016;2023-01-10T17:32:26;30.10;26.20
65072;DHT22;51663;52.310;17.016;2023-01-10T17:35:28;30.10;26.30
65072;DHT22;51663;52.310;17.016;2023-01-10T17:38:33;30.20;26.20
65072;DHT22;51663;52.310;17.016;2023-01-10T17:41:35;30.20;26.10
65072;DHT22;51663;52.310;17.016;2023-01-10T17:44:37;30.20;26.10
65072;DHT22;51663;52.310;17.016;2023-01-10T17:47:40;30.30;26.20
65072;DHT22;51663;52.310;17.016;2023-01-10T17:50:47;30.20;26.10
65072;DHT22;51663;52.310;17.016;2023-01-10T17:53:53;30.20;26.10
65072;DHT22;51663;52.310;17.016;2023-01-10T17:56:55;30.20;26.00
65072;DHT22;51663;52.310;17.016;2023-01-10T18:00:01;30.10;26.10
65072;DHT22;51663;52.310;17.016;2023-01-10T18:03:04;30.20;26.00
65072;DHT22;51663;52.310;17.016;2023-01-10T18:06:07;30.20;26.00
65072;DHT22;51663;52.310;17.016;2023-01-10T18:09:24;30.10;26.10
65072;DHT22;51663;52.310;17.016;2023-01-10T18:12:26;30.00;26.20
65072;DHT22;51663;52.310;17.016;2023-01-10T18:15:29;30.10;26.20
65072;DHT22;51663;52.310;17.016;2023-01-10T18:18:31;30.20;26.60
65072;DHT22;51663;52.310;17.016;2023-01-10T18:21:34;30.20;26.10
65072;DHT22;51663;52.310;17.016;2023-01-10T18:24:36;30.00;26.20
65072;DHT22;51663;52.310;17.016;2023-01-10T18:27:38;30.00;26.40
65072;DHT22;51663;52.310;17.016;2023-01-10T18:30:40;30.10;26.40
65072;DHT22;51663;52.310;17.016;2023-01-10T18:33:46;29.80;26.60
65072;DHT22;51663;52.310;17.016;2023-01-10T18:36:49;29.90;26.60
65072;DHT22;51663;52.310;17.016;2023-01-10T18:39:52;30.00;26.40
65072;DHT22;51663;52.310;17.016;2023-01-10T18:42:55;30.10;26.40
65072;DHT22;51663;52.310;17.016;2023-01-10T18:46:01;30.10;26.30
65072;DHT22;51663;52.310;17.016;2023-01-10T18:49:04;30.10;26.30
65072;DHT22;51663;52.310;17.016;2023-01-10T18:52:09;30.10;26.40
65072;DHT22;51663;52.310;17.016;2023-01-10T18:55:11;30.00;26.40
65072;DHT22;51663;52.310;17.016;2023-01-10T18:58:13;30.10;26.40
65072;DHT22;51663;52.310;17.016;2023-01-10T19:01:17;30.10;26.30
65072;DHT22;51663;52.310;17.016;2023-01-10T19:04:21;30.20;26.30
65072;DHT22;51663;52.310;17.016;2023-01-10T19:07:23;30.20;26.20
65072;DHT22;51663;52.310;17.016;2023-01-10T19:10:26;30.30;26.20
65072;DHT22;51663;52.310;17.016;2023-01-10T19:13:28;30.30;26.20
65072;DHT22;51663;52.310;17.016;2023-01-10T19:16:31;30.30;26.10
65072;DHT22;51663;52.310;17.016;2023-01-10T19:19:33;30.20;26.10
65072;DHT22;51663;52.310;17.016;2023-01-10T19:22:35;30.20;26.40
65072;DHT22;51663;52.310;17.016;2023-01-10T19:25:38;30.20;26.50
65072;DHT22;51663;52.310;17.016;2023-01-10T19:28:43;30.10;26.40
65072;DHT22;51663;52.310;17.016;2023-01-10T19:31:45;30.10;26.40
65072;DHT22;51663;52.310;17.016;2023-01-10T19:34:50;30.20;26.50
65072;DHT22;51663;52.310;17.016;2023-01-10T19:37:52;30.10;26.40
65072;DHT22;51663;52.310;17.016;2023-01-10T19:40:55;30.10;26.40
65072;DHT22;51663;52.310;17.016;2023-01-10T19:43:59;30.10;26.30
65072;DHT22;51663;52.310;17.016;2023-01-10T19:47:01;30.10;26.30
65072;DHT22;51663;52.310;17.016;2023-01-10T19:50:03;30.20;26.20
65072;DHT22;51663;52.310;17.016;2023-01-10T19:53:06;30.20;26.10
65072;DHT22;51663;52.310;17.016;2023-01-10T19:56:08;30.20;26.10
65072;DHT22;51663;52.310;17.016;2023-01-10T19:59:11;30.20;26.10
65072;DHT22;51663;52.310;17.016;2023-01-10T20:02:15;30.20;26.00
65072;DHT22;51663;52.310;17.016;2023-01-10T20:05:18;30.30;26.20
65072;DHT22;51663;52.310;17.016;2023-01-10T20:08:21;30.30;26.30
65072;DHT22;51663;52.310;17.016;2023-01-10T20:11:25;30.30;26.10
65072;DHT22;51663;52.310;17.016;2023-01-10T20:14:29;30.30;26.10
65072;DHT22;51663;52.310;17.016;2023-01-10T20:17:31;30.10;26.20
65072;DHT22;51663;52.310;17.016;2023-01-10T20:20:34;30.10;26.40
65072;DHT22;51663;52.310;17.016;2023-01-10T20:23:38;30.10;26.30
65072;DHT22;51663;52.310;17.016;2023-01-10T20:26:40;29.90;26.40
65072;DHT22;51663;52.310;17.016;2023-01-10T20:29:44;29.90;26.40
65072;DHT22;51663;52.310;17.016;2023-01-10T20:32:46;29.70;26.50
65072;DHT22;51663;52.310;17.016;2023-01-10T20:36:04;29.90;26.50
65072;DHT22;51663;52.310;17.016;2023-01-10T20:39:09;29.90;26.40
65072;DHT22;51663;52.310;17.016;2023-01-10T20:42:12;30.10;26.40
65072;DHT22;51663;52.310;17.016;2023-01-10T20:45:14;30.10;26.30